Time;durP1;ratioP1;P1;durP2;ratioP2;P2;SDS_P1;SDS_P2;PMS_P1;PMS_P2;Temp;Humidity;BMP_temperature;BMP_pressure;BME280_temperature;BME280_humidity;BME280_pressure;Samples;Min_cycle;Max_cycle;Signal;HPM_P1;HPM_P2
2024/01/27 00:00:41;;;;;;;3.45;3.15;;;;;;;;;;2072961;28;20506;-76
2024/01/27 00:02:05;;;;;;;5.93;4.05;;;;;;;;;;2073700;28;20449;-76
2024/01/27 00:03:24;;;;;;;7.97;3.83;;;;;;;;;;2076980;28;20033;-76
2024/01/27 00:04:43;;;;;;;9.10;4.28;;;;;;;;;;2075698;28;20034;-76
2024/01/27 00:06:02;;;;;;;10.88;4.82;;;;;;;;;;2077104;28;20033;-76
2024/01/27 00:07:21;;;;;;;7.15;4.53;;;;;;;;;;2076998;28;20037;-76
2024/01/27 00:08:40;;;;;;;9.60;4.68;;;;;;;;;;2066631;28;20030;-76
2024/01/27 00:10:00;;;;;;;11.88;4.82;;;;;;;;;;2072390;28;20042;-76
2024/01/27 00:11:19;;;;;;;9.05;4.30;;;;;;;;;;2077404;28;20437;-76
2024/01/27 00:12:38;;;;;;;9.43;5.13;;;;;;;;;;2066679;28;20515;-76
2024/01/27 00:13:59;;;;;;;9.43;4.35;;;;;;;;;;2073956;28;20076;-75
2024/01/27 00:15:18;;;;;;;8.73;4.20;;;;;;;;;;2077842;28;20033;-76
2024/01/27 00:16:37;;;;;;;12.52;4.95;;;;;;;;;;2076954;28;20105;-76
2024/01/27 00:17:56;;;;;;;9.90;4.72;;;;;;;;;;2075822;28;20042;-76
2024/01/27 00:19:15;;;;;;;11.52;4.50;;;;;;;;;;2076481;28;20038;-76
2024/01/27 00:20:33;;;;;;;7.43;4.60;;;;;;;;;;2067274;28;20715;-76
2024/01/27 00:21:52;;;;;;;8.77;4.85;;;;;;;;;;2074201;28;20046;-75
2024/01/27 00:23:11;;;;;;;7.22;5.38;;;;;;;;;;2077478;28;20053;-76
2024/01/27 00:24:30;;;;;;;7.53;5.57;;;;;;;;;;2068084;28;20575;-76
2024/01/27 00:25:49;;;;;;;9.63;5.22;;;;;;;;;;2063860;28;20046;-76
2024/01/27 00:27:07;;;;;;;5.30;4.80;;;;;;;;;;2072493;28;20042;-77
2024/01/27 00:28:26;;;;;;;5.65;5.03;;;;;;;;;;2077406;28;20041;-77
2024/01/27 00:29:45;;;;;;;9.75;5.38;;;;;;;;;;2075344;28;20025;-77
2024/01/27 00:31:04;;;;;;;8.35;4.63;;;;;;;;;;2075836;28;20464;-76
2024/01/27 00:32:23;;;;;;;13.75;5.30;;;;;;;;;;2076950;28;20033;-77
2024/01/27 00:33:42;;;;;;;16.25;5.70;;;;;;;;;;2067682;28;20038;-77
2024/01/27 00:35:01;;;;;;;14.60;5.50;;;;;;;;;;2073197;28;20022;-77
2024/01/27 00:36:20;;;;;;;9.57;4.88;;;;;;;;;;2068052;28;20452;-77
2024/01/27 00:37:40;;;;;;;9.55;5.10;;;;;;;;;;2065236;28;20030;-76
2024/01/27 00:38:59;;;;;;;16.42;5.55;;;;;;;;;;2073135;28;20026;-76
2024/01/27 00:40:18;;;;;;;13.40;5.07;;;;;;;;;;2067842;28;20030;-79
2024/01/27 00:41:37;;;;;;;9.13;4.82;;;;;;;;;;2072603;28;20120;-77
2024/01/27 00:42:56;;;;;;;9.93;4.90;;;;;;;;;;2077519;28;20026;-77
2024/01/27 00:44:15;;;;;;;9.05;4.97;;;;;;;;;;2067893;28;20049;-77
2024/01/27 00:45:34;;;;;;;12.23;4.90;;;;;;;;;;2073519;28;20025;-77
2024/01/27 00:46:53;;;;;;;5.38;4.60;;;;;;;;;;2069007;28;20026;-77
2024/01/27 00:48:13;;;;;;;9.73;4.78;;;;;;;;;;2075117;28;20065;-77
2024/01/27 00:49:32;;;;;;;7.40;4.90;;;;;;;;;;2076006;28;20084;-76
2024/01/27 00:50:51;;;;;;;7.50;4.68;;;;;;;;;;2075396;28;20030;-77
2024/01/27 00:52:09;;;;;;;6.30;5.03;;;;;;;;;;2067342;28;20522;-77
2024/01/27 00:53:28;;;;;;;10.90;4.75;;;;;;;;;;2068427;28;20034;-78
2024/01/27 00:54:48;;;;;;;8.05;4.93;;;;;;;;;;2060864;28;20034;-77
2024/01/27 00:56:07;;;;;;;12.88;5.20;;;;;;;;;;2072682;28;20022;-77
2024/01/27 00:57:26;;;;;;;10.20;4.90;;;;;;;;;;2066482;28;20022;-77
2024/01/27 00:58:45;;;;;;;8.88;5.15;;;;;;;;;;2063689;28;20401;-77
2024/01/27 01:00:06;;;;;;;13.02;4.95;;;;;;;;;;2066887;28;20038;-77
2024/01/27 01:01:25;;;;;;;5.93;5.18;;;;;;;;;;2072627;28;20054;-77
2024/01/27 01:02:47;;;;;;;8.20;5.30;;;;;;;;;;2068946;28;20027;-77
2024/01/27 01:04:07;;;;;;;12.68;4.90;;;;;;;;;;2058516;28;20030;-77
2024/01/27 01:05:26;;;;;;;8.52;4.88;;;;;;;;;;2054981;28;20121;-77
2024/01/27 01:06:45;;;;;;;13.40;5.72;;;;;;;;;;2063950;28;20054;-77
2024/01/27 01:08:08;;;;;;;14.75;5.63;;;;;;;;;;2063048;28;20069;-77
2024/01/27 01:09:26;;;;;;;19.60;5.80;;;;;;;;;;2069355;28;20069;-77
2024/01/27 01:10:46;;;;;;;9.80;4.95;;;;;;;;;;2074310;28;20026;-77
2024/01/27 01:12:05;;;;;;;17.75;6.85;;;;;;;;;;2075644;28;20112;-78
2024/01/27 01:13:24;;;;;;;14.95;6.05;;;;;;;;;;2066814;28;20077;-77
2024/01/27 01:14:43;;;;;;;10.60;5.63;;;;;;;;;;2067933;28;20041;-78
2024/01/27 01:16:03;;;;;;;9.93;5.95;;;;;;;;;;2073570;28;20034;-76
2024/01/27 01:17:22;;;;;;;9.10;5.88;;;;;;;;;;2076218;28;20038;-77
2024/01/27 01:18:41;;;;;;;14.50;5.82;;;;;;;;;;2068410;28;20118;-77
2024/01/27 01:20:00;;;;;;;9.95;5.80;;;;;;;;;;2064916;28;20026;-77
2024/01/27 01:21:25;;;;;;;10.70;5.72;;;;;;;;;;2070964;28;20460;-78
2024/01/27 01:22:44;;;;;;;15.15;6.63;;;;;;;;;;2067209;28;20049;-78
2024/01/27 01:24:03;;;;;;;12.05;6.05;;;;;;;;;;2070202;28;20974;-78
2024/01/27 01:25:22;;;;;;;10.27;5.80;;;;;;;;;;2067632;28;20109;-78
2024/01/27 01:26:42;;;;;;;12.13;5.75;;;;;;;;;;2072312;28;20042;-78
2024/01/27 01:28:01;;;;;;;8.25;5.35;;;;;;;;;;2067132;28;20027;-78
2024/01/27 01:29:21;;;;;;;12.15;5.82;;;;;;;;;;2063501;28;20480;-78
2024/01/27 01:30:41;;;;;;;8.68;5.72;;;;;;;;;;2072946;28;20033;-78
2024/01/27 01:32:02;;;;;;;7.32;5.80;;;;;;;;;;2067282;28;20421;-78
2024/01/27 01:33:21;;;;;;;12.23;5.35;;;;;;;;;;2064020;28;20031;-78
2024/01/27 01:34:41;;;;;;;10.98;6.28;;;;;;;;;;2072847;28;20513;-78
2024/01/27 01:36:03;;;;;;;10.75;5.80;;;;;;;;;;2076583;28;20026;-78
2024/01/27 01:37:22;;;;;;;9.18;6.53;;;;;;;;;;2068285;28;20034;-78
2024/01/27 01:38:42;;;;;;;9.93;5.95;;;;;;;;;;2071052;28;20037;-78
2024/01/27 01:40:02;;;;;;;10.70;6.45;;;;;;;;;;2076162;28;20034;-78
2024/01/27 01:41:22;;;;;;;9.55;6.55;;;;;;;;;;2076361;28;20483;-78
2024/01/27 01:42:44;;;;;;;13.70;6.88;;;;;;;;;;2076205;28;20037;-78
2024/01/27 01:44:03;;;;;;;10.13;6.70;;;;;;;;;;2076060;28;20492;-78
2024/01/27 01:45:22;;;;;;;12.30;6.85;;;;;;;;;;2063824;28;20074;-78
2024/01/27 01:46:47;;;;;;;16.77;6.90;;;;;;;;;;2063491;28;20038;-78
2024/01/27 01:48:07;;;;;;;14.88;7.47;;;;;;;;;;2072972;28;20050;-77
2024/01/27 01:49:26;;;;;;;14.10;7.10;;;;;;;;;;2067724;28;20034;-77
2024/01/27 01:50:46;;;;;;;16.50;7.38;;;;;;;;;;2072834;28;20034;-78
2024/01/27 01:52:06;;;;;;;11.25;7.05;;;;;;;;;;2076636;28;20507;-78
2024/01/27 01:53:25;;;;;;;14.10;7.32;;;;;;;;;;2067654;28;20485;-78
2024/01/27 01:54:44;;;;;;;9.85;6.90;;;;;;;;;;2063512;28;20492;-78
2024/01/27 01:56:04;;;;;;;12.10;6.85;;;;;;;;;;2072529;28;20030;-77
2024/01/27 01:57:23;;;;;;;12.75;7.35;;;;;;;;;;2066658;28;20034;-77
2024/01/27 01:58:42;;;;;;;12.38;7.07;;;;;;;;;;2072674;28;20041;-77
2024/01/27 02:00:01;;;;;;;15.20;8.15;;;;;;;;;;2067108;28;20085;-77
2024/01/27 02:01:21;;;;;;;12.32;7.35;;;;;;;;;;2072230;28;20108;-78
2024/01/27 02:02:40;;;;;;;16.98;7.25;;;;;;;;;;2067334;28;20104;-77
2024/01/27 02:03:59;;;;;;;14.43;7.47;;;;;;;;;;2072009;28;20018;-77
2024/01/27 02:05:18;;;;;;;11.73;7.55;;;;;;;;;;2067790;28;20030;-77
2024/01/27 02:06:37;;;;;;;14.63;8.63;;;;;;;;;;2067731;28;20030;-77
2024/01/27 02:07:59;;;;;;;16.05;8.07;;;;;;;;;;2072074;28;20112;-77
2024/01/27 02:09:18;;;;;;;16.85;7.95;;;;;;;;;;2075929;28;20389;-77
2024/01/27 02:10:37;;;;;;;11.98;8.18;;;;;;;;;;2075135;28;20037;-77
2024/01/27 02:11:56;;;;;;;13.98;7.75;;;;;;;;;;2073598;28;20556;-77
2024/01/27 02:13:19;;;;;;;15.05;7.88;;;;;;;;;;2075073;28;20034;-77
2024/01/27 02:14:38;;;;;;;;;;;;;;;;;;2077316;28;20025;-77
2024/01/27 02:15:57;;;;;;;14.70;7.82;;;;;;;;;;2076559;28;19910;-77
2024/01/27 02:17:16;;;;;;;12.82;7.50;;;;;;;;;;2076410;28;20392;-77
2024/01/27 02:18:35;;;;;;;14.90;7.93;;;;;;;;;;2067812;28;20574;-77
2024/01/27 02:19:54;;;;;;;14.88;7.57;;;;;;;;;;2073063;28;20499;-77
2024/01/27 02:21:13;;;;;;;12.35;7.07;;;;;;;;;;2075950;28;20484;-77
2024/01/27 02:22:33;;;;;;;13.35;8.10;;;;;;;;;;2076061;28;20412;-77
2024/01/27 02:23:51;;;;;;;16.35;8.23;;;;;;;;;;2068388;28;20553;-77
2024/01/27 02:25:10;;;;;;;15.52;7.63;;;;;;;;;;2064533;28;20031;-77
2024/01/27 02:26:29;;;;;;;14.80;7.85;;;;;;;;;;2065931;28;20026;-78
2024/01/27 02:27:48;;;;;;;16.67;8.30;;;;;;;;;;2067070;28;20146;-77
2024/01/27 02:29:10;;;;;;;15.30;7.95;;;;;;;;;;2070299;28;20069;-77
2024/01/27 02:30:29;;;;;;;14.07;6.97;;;;;;;;;;2066867;28;20038;-77
2024/01/27 02:31:49;;;;;;;13.77;7.00;;;;;;;;;;2072267;28;20239;-78
2024/01/27 02:33:08;;;;;;;10.77;5.95;;;;;;;;;;2067323;28;20034;-77
2024/01/27 02:34:27;;;;;;;6.68;4.80;;;;;;;;;;2072628;28;20023;-77
2024/01/27 02:35:48;;;;;;;10.88;5.65;;;;;;;;;;2066522;28;20034;-77
2024/01/27 02:37:07;;;;;;;7.30;5.13;;;;;;;;;;2072642;28;20026;-77
2024/01/27 02:38:26;;;;;;;6.65;5.25;;;;;;;;;;2075695;28;20503;-77
2024/01/27 02:39:45;;;;;;;5.28;4.07;;;;;;;;;;2075552;28;20038;-77
2024/01/27 02:41:05;;;;;;;6.03;4.82;;;;;;;;;;2074836;28;20046;-77
2024/01/27 02:42:24;;;;;;;5.95;3.97;;;;;;;;;;2077605;28;20400;-77
2024/01/27 02:43:43;;;;;;;6.13;4.40;;;;;;;;;;2074089;28;20033;-77
2024/01/27 02:45:02;;;;;;;5.10;4.22;;;;;;;;;;2076028;28;20155;-77
2024/01/27 02:46:22;;;;;;;5.20;4.57;;;;;;;;;;2065207;28;20034;-77
2024/01/27 02:47:40;;;;;;;4.32;3.45;;;;;;;;;;2072325;28;20037;-77
2024/01/27 02:48:59;;;;;;;4.68;3.17;;;;;;;;;;2076229;28;20158;-78
2024/01/27 02:50:19;;;;;;;5.72;2.95;;;;;;;;;;2064518;28;20034;-77
2024/01/27 02:51:38;;;;;;;3.45;3.15;;;;;;;;;;2071487;28;20042;-77
2024/01/27 02:52:57;;;;;;;3.13;2.83;;;;;;;;;;2074752;28;20117;-77
2024/01/27 02:54:16;;;;;;;2.80;2.45;;;;;;;;;;2075312;28;20029;-77
2024/01/27 02:55:35;;;;;;;3.08;2.75;;;;;;;;;;2074581;28;20022;-77
2024/01/27 02:56:54;;;;;;;2.78;2.40;;;;;;;;;;2065995;28;20034;-77
2024/01/27 02:58:13;;;;;;;2.70;2.50;;;;;;;;;;2062339;28;20061;-78
2024/01/27 02:59:32;;;;;;;2.40;2.20;;;;;;;;;;2064748;28;20034;-77
2024/01/27 03:00:51;;;;;;;1.98;1.88;;;;;;;;;;2066421;28;20041;-77
2024/01/27 03:02:10;;;;;;;1.90;1.80;;;;;;;;;;2074864;28;20034;-77
2024/01/27 03:03:30;;;;;;;2.67;1.75;;;;;;;;;;2074603;28;20033;-78
2024/01/27 03:04:49;;;;;;;3.50;2.15;;;;;;;;;;2073274;28;20029;-79
2024/01/27 03:06:08;;;;;;;2.40;2.20;;;;;;;;;;2075763;28;20042;-78
2024/01/27 03:07:27;;;;;;;2.20;2.00;;;;;;;;;;2060238;28;20043;-77
2024/01/27 03:08:46;;;;;;;1.98;1.80;;;;;;;;;;2067993;28;20034;-78
2024/01/27 03:10:05;;;;;;;2.30;1.95;;;;;;;;;;2075764;28;20030;-77
2024/01/27 03:11:25;;;;;;;1.80;1.65;;;;;;;;;;2076000;28;20033;-78
2024/01/27 03:12:43;;;;;;;1.90;1.63;;;;;;;;;;2075157;28;20030;-78
2024/01/27 03:14:02;;;;;;;2.05;1.90;;;;;;;;;;2067560;28;20541;-78
2024/01/27 03:15:22;;;;;;;1.60;1.50;;;;;;;;;;2074057;28;20033;-78
2024/01/27 03:16:40;;;;;;;1.85;1.48;;;;;;;;;;2068901;28;20338;-78
2024/01/27 03:18:00;;;;;;;2.15;2.00;;;;;;;;;;2064744;28;20493;-78
2024/01/27 03:19:19;;;;;;;1.95;1.75;;;;;;;;;;2073823;28;20030;-78
2024/01/27 03:20:38;;;;;;;1.90;1.70;;;;;;;;;;2068448;28;20112;-78
2024/01/27 03:21:57;;;;;;;1.60;1.50;;;;;;;;;;2064978;28;20029;-77
2024/01/27 03:23:16;;;;;;;1.90;1.80;;;;;;;;;;2073662;28;20034;-77
2024/01/27 03:24:35;;;;;;;1.60;1.50;;;;;;;;;;2069513;28;20030;-78
2024/01/27 03:25:54;;;;;;;2.88;1.80;;;;;;;;;;2064965;28;20057;-78
2024/01/27 03:27:13;;;;;;;2.13;1.55;;;;;;;;;;2065933;28;20034;-78
2024/01/27 03:28:32;;;;;;;1.40;1.30;;;;;;;;;;2072314;28;20038;-78
2024/01/27 03:29:51;;;;;;;2.53;1.50;;;;;;;;;;2076878;28;20037;-78
2024/01/27 03:31:10;;;;;;;1.60;1.50;;;;;;;;;;2068221;28;20068;-78
2024/01/27 03:32:32;;;;;;;1.75;1.65;;;;;;;;;;2072871;28;20425;-78
2024/01/27 03:33:51;;;;;;;1.63;1.52;;;;;;;;;;2076273;28;20077;-78
2024/01/27 03:35:10;;;;;;;1.45;1.35;;;;;;;;;;2078186;28;20029;-78
2024/01/27 03:36:29;;;;;;;1.50;1.40;;;;;;;;;;2067084;28;20026;-79
2024/01/27 03:37:51;;;;;;;1.50;1.40;;;;;;;;;;2073244;28;20042;-79
2024/01/27 03:39:10;;;;;;;1.25;1.08;;;;;;;;;;2069324;28;20033;-78
2024/01/27 03:40:29;;;;;;;0.93;0.93;;;;;;;;;;2065816;28;20524;-78
2024/01/27 03:41:48;;;;;;;1.80;0.80;;;;;;;;;;2073045;28;20045;-78
2024/01/27 03:43:07;;;;;;;0.70;0.70;;;;;;;;;;2076568;28;20029;-77
2024/01/27 03:44:26;;;;;;;0.85;0.85;;;;;;;;;;2077161;28;20057;-77
2024/01/27 03:45:45;;;;;;;0.73;0.73;;;;;;;;;;2077170;28;20034;-77
2024/01/27 03:47:04;;;;;;;0.90;0.90;;;;;;;;;;2074820;28;20034;-79
2024/01/27 03:48:23;;;;;;;1.00;1.00;;;;;;;;;;2076507;28;20500;-78
2024/01/27 03:49:42;;;;;;;0.90;0.90;;;;;;;;;;2076004;28;20042;-78
2024/01/27 03:51:01;;;;;;;0.90;0.80;;;;;;;;;;2076485;28;20030;-78
2024/01/27 03:52:20;;;;;;;0.90;0.90;;;;;;;;;;2068174;28;20022;-77
2024/01/27 03:53:39;;;;;;;0.90;0.90;;;;;;;;;;2072005;28;20057;-78
2024/01/27 03:54:58;;;;;;;1.05;1.05;;;;;;;;;;2067828;28;20529;-78
2024/01/27 03:56:18;;;;;;;1.35;1.10;;;;;;;;;;2073131;28;20025;-77
2024/01/27 03:57:37;;;;;;;1.00;1.00;;;;;;;;;;2076455;28;20022;-78
2024/01/27 03:58:56;;;;;;;1.30;1.20;;;;;;;;;;2078996;28;20037;-78
2024/01/27 04:00:15;;;;;;;1.20;1.20;;;;;;;;;;2075986;28;20042;-78
2024/01/27 04:01:35;;;;;;;1.25;1.25;;;;;;;;;;2067516;28;20025;-78
2024/01/27 04:02:54;;;;;;;1.35;1.20;;;;;;;;;;2065116;28;20034;-78
2024/01/27 04:04:13;;;;;;;1.02;1.02;;;;;;;;;;2072980;28;20079;-78
2024/01/27 04:05:32;;;;;;;1.48;1.38;;;;;;;;;;2077429;28;20072;-78
2024/01/27 04:06:51;;;;;;;1.08;1.08;;;;;;;;;;2076584;28;20042;-78
2024/01/27 04:08:10;;;;;;;1.52;1.42;;;;;;;;;;2076320;28;20116;-78
2024/01/27 04:09:29;;;;;;;1.35;1.25;;;;;;;;;;2065484;28;20030;-78
2024/01/27 04:10:48;;;;;;;1.50;1.40;;;;;;;;;;2072116;28;20042;-78
2024/01/27 04:12:07;;;;;;;2.15;1.27;;;;;;;;;;2076452;28;20030;-78
2024/01/27 04:13:25;;;;;;;1.27;1.27;;;;;;;;;;2078073;28;20408;-76
2024/01/27 04:14:44;;;;;;;1.63;1.10;;;;;;;;;;2068410;28;20049;-77
2024/01/27 04:16:03;;;;;;;1.52;1.20;;;;;;;;;;2073321;28;20481;-78
2024/01/27 04:17:22;;;;;;;1.10;1.10;;;;;;;;;;2075980;28;20116;-78
2024/01/27 04:18:41;;;;;;;0.85;0.70;;;;;;;;;;2068442;28;20595;-79
2024/01/27 04:20:01;;;;;;;0.90;0.90;;;;;;;;;;2072695;28;20485;-79
2024/01/27 04:21:21;;;;;;;1.02;1.02;;;;;;;;;;2076346;28;20408;-78
2024/01/27 04:22:40;;;;;;;1.63;1.02;;;;;;;;;;2076049;28;20018;-77
2024/01/27 04:23:59;;;;;;;1.20;1.10;;;;;;;;;;2076135;28;20588;-79
2024/01/27 04:25:18;;;;;;;1.20;1.10;;;;;;;;;;2077082;28;20117;-79
2024/01/27 04:26:37;;;;;;;1.10;1.02;;;;;;;;;;2067757;28;20022;-78
2024/01/27 04:27:56;;;;;;;1.08;1.02;;;;;;;;;;2073961;28;20496;-78
2024/01/27 04:29:15;;;;;;;1.10;1.10;;;;;;;;;;2076167;28;20042;-78
2024/01/27 04:30:34;;;;;;;1.33;1.08;;;;;;;;;;2067426;28;20513;-77
2024/01/27 04:31:53;;;;;;;1.00;1.00;;;;;;;;;;2067446;28;20077;-77
2024/01/27 04:33:12;;;;;;;1.48;1.40;;;;;;;;;;2066903;28;20038;-78
2024/01/27 04:34:32;;;;;;;1.50;1.05;;;;;;;;;;2073080;28;20029;-78
2024/01/27 04:35:51;;;;;;;1.52;1.40;;;;;;;;;;2068172;28;20046;-77
2024/01/27 04:37:11;;;;;;;1.40;1.30;;;;;;;;;;2073133;28;20037;-77
2024/01/27 04:38:30;;;;;;;1.50;1.40;;;;;;;;;;2067136;28;20062;-79
2024/01/27 04:39:49;;;;;;;1.35;1.30;;;;;;;;;;2064782;28;20477;-78
2024/01/27 04:41:07;;;;;;;1.33;1.23;;;;;;;;;;2072658;28;20034;-78
2024/01/27 04:42:26;;;;;;;1.20;1.10;;;;;;;;;;2076074;28;20038;-78
2024/01/27 04:43:47;;;;;;;1.40;1.30;;;;;;;;;;2068013;28;20041;-79
2024/01/27 04:45:06;;;;;;;1.83;1.27;;;;;;;;;;2072881;28;20435;-78
2024/01/27 04:46:25;;;;;;;1.30;1.30;;;;;;;;;;2076760;28;20033;-78
2024/01/27 04:47:44;;;;;;;1.40;1.30;;;;;;;;;;2067585;28;20038;-78
2024/01/27 04:49:03;;;;;;;1.40;1.30;;;;;;;;;;2074223;28;20512;-77
2024/01/27 04:50:22;;;;;;;1.30;1.20;;;;;;;;;;2067004;28;20026;-77
2024/01/27 04:51:41;;;;;;;1.30;1.20;;;;;;;;;;2073112;28;20033;-78
2024/01/27 04:53:00;;;;;;;0.90;0.90;;;;;;;;;;2076559;28;20022;-79
2024/01/27 04:54:19;;;;;;;1.42;1.23;;;;;;;;;;2076159;28;20424;-78
2024/01/27 04:55:38;;;;;;;1.25;1.02;;;;;;;;;;2076169;28;20029;-77
2024/01/27 04:56:57;;;;;;;1.10;1.10;;;;;;;;;;2076356;28;20101;-79
2024/01/27 04:58:16;;;;;;;1.48;1.38;;;;;;;;;;2072301;28;20034;-78
2024/01/27 04:59:35;;;;;;;1.20;1.10;;;;;;;;;;2065439;28;20524;-78
2024/01/27 05:00:54;;;;;;;1.42;1.27;;;;;;;;;;2065003;28;20033;-79
2024/01/27 05:02:13;;;;;;;1.08;1.08;;;;;;;;;;2072286;28;20041;-78
2024/01/27 05:03:32;;;;;;;1.10;1.02;;;;;;;;;;2075070;28;20037;-78
2024/01/27 05:04:52;;;;;;;1.25;1.05;;;;;;;;;;2065614;28;20101;-79
2024/01/27 05:06:11;;;;;;;1.20;1.10;;;;;;;;;;2064688;28;20047;-78
2024/01/27 05:07:30;;;;;;;1.90;1.55;;;;;;;;;;2072255;28;20034;-77
2024/01/27 05:08:49;;;;;;;0.90;0.90;;;;;;;;;;2066883;28;20041;-79
2024/01/27 05:10:10;;;;;;;1.40;1.30;;;;;;;;;;2064676;28;20429;-79
2024/01/27 05:11:31;;;;;;;2.40;1.00;;;;;;;;;;2064170;28;20075;-78
2024/01/27 05:12:50;;;;;;;0.98;0.98;;;;;;;;;;2063456;28;20524;-77
2024/01/27 05:14:09;;;;;;;1.20;1.10;;;;;;;;;;2069880;28;20033;-78
2024/01/27 05:15:28;;;;;;;0.73;0.73;;;;;;;;;;2071849;28;20561;-78
2024/01/27 05:16:47;;;;;;;0.80;0.80;;;;;;;;;;2067942;28;20030;-78
2024/01/27 05:18:06;;;;;;;0.70;0.70;;;;;;;;;;2073461;28;20034;-78
2024/01/27 05:19:25;;;;;;;1.08;0.90;;;;;;;;;;2073866;28;20500;-78
2024/01/27 05:20:44;;;;;;;1.20;1.10;;;;;;;;;;2076070;28;20045;-78
2024/01/27 05:22:03;;;;;;;0.90;0.90;;;;;;;;;;2067335;28;20049;-79
2024/01/27 05:23:23;;;;;;;0.95;0.93;;;;;;;;;;2073022;28;20037;-78
2024/01/27 05:24:42;;;;;;;1.17;0.77;;;;;;;;;;2067025;28;20128;-77
2024/01/27 05:26:01;;;;;;;1.10;1.00;;;;;;;;;;2064025;28;20125;-77
2024/01/27 05:27:20;;;;;;;0.82;0.77;;;;;;;;;;2073699;28;20476;-77
2024/01/27 05:28:40;;;;;;;0.77;0.77;;;;;;;;;;2075485;28;20030;-78
2024/01/27 05:29:58;;;;;;;1.00;0.90;;;;;;;;;;2076372;28;20025;-79
2024/01/27 05:31:18;;;;;;;0.90;0.90;;;;;;;;;;2075643;28;20018;-78
2024/01/27 05:32:36;;;;;;;0.93;0.90;;;;;;;;;;2073659;28;20043;-79
2024/01/27 05:33:55;;;;;;;0.70;0.70;;;;;;;;;;2067574;28;20026;-78
2024/01/27 05:35:16;;;;;;;2.00;0.98;;;;;;;;;;2073546;28;20508;-78
2024/01/27 05:36:34;;;;;;;0.90;0.70;;;;;;;;;;2074956;28;20053;-79
2024/01/27 05:37:53;;;;;;;1.05;0.90;;;;;;;;;;2074895;28;20034;-79
2024/01/27 05:39:13;;;;;;;0.80;0.80;;;;;;;;;;2075714;28;20492;-78
2024/01/27 05:40:32;;;;;;;0.68;0.68;;;;;;;;;;2077118;28;20030;-79
2024/01/27 05:41:51;;;;;;;3.25;0.88;;;;;;;;;;2076434;28;20041;-78
2024/01/27 05:43:10;;;;;;;0.60;0.60;;;;;;;;;;2066498;28;20033;-78
2024/01/27 05:44:29;;;;;;;0.80;0.80;;;;;;;;;;2071723;28;20033;-78
2024/01/27 05:45:49;;;;;;;0.73;0.73;;;;;;;;;;2076323;28;20404;-77
2024/01/27 05:47:10;;;;;;;0.80;0.80;;;;;;;;;;2062730;28;20047;-77
2024/01/27 05:48:30;;;;;;;0.90;0.90;;;;;;;;;;2065157;28;20034;-80
2024/01/27 05:49:49;;;;;;;0.85;0.85;;;;;;;;;;2059764;28;20046;-79
2024/01/27 05:51:09;;;;;;;1.05;0.90;;;;;;;;;;2056133;28;20034;-80
2024/01/27 05:52:28;;;;;;;2.10;0.90;;;;;;;;;;2065604;28;20497;-79
2024/01/27 05:53:47;;;;;;;1.20;1.10;;;;;;;;;;2067270;28;20037;-80
2024/01/27 05:55:07;;;;;;;0.90;0.90;;;;;;;;;;2067259;28;20102;-80
2024/01/27 05:56:25;;;;;;;0.80;0.80;;;;;;;;;;2066552;28;20026;-78
2024/01/27 05:57:44;;;;;;;0.80;0.80;;;;;;;;;;2068341;28;20102;-80
2024/01/27 05:59:03;;;;;;;1.08;1.05;;;;;;;;;;2068550;28;20034;-80
2024/01/27 06:00:22;;;;;;;0.90;0.90;;;;;;;;;;2067394;28;20030;-80
2024/01/27 06:01:43;;;;;;;1.00;1.00;;;;;;;;;;2065787;28;20029;-80
2024/01/27 06:03:02;;;;;;;0.90;0.90;;;;;;;;;;2067040;28;20038;-80
2024/01/27 06:04:21;;;;;;;0.85;0.73;;;;;;;;;;2069607;28;20034;-81
2024/01/27 06:05:41;;;;;;;0.80;0.80;;;;;;;;;;2060114;28;20031;-80
2024/01/27 06:07:00;;;;;;;1.15;0.93;;;;;;;;;;2065500;28;20030;-80
2024/01/27 06:08:19;;;;;;;0.88;0.80;;;;;;;;;;2066538;28;20042;-80
2024/01/27 06:09:39;;;;;;;0.80;0.80;;;;;;;;;;2067524;28;20030;-80
2024/01/27 06:10:58;;;;;;;0.80;0.80;;;;;;;;;;2058128;28;20038;-80
2024/01/27 06:12:17;;;;;;;2.22;0.85;;;;;;;;;;2055435;28;20106;-79
2024/01/27 06:13:40;;;;;;;0.80;0.80;;;;;;;;;;2055604;28;20418;-80
2024/01/27 06:14:59;;;;;;;1.38;0.95;;;;;;;;;;2055451;28;20034;-80
2024/01/27 06:16:19;;;;;;;0.90;0.90;;;;;;;;;;2065460;28;20113;-79
2024/01/27 06:17:38;;;;;;;0.88;0.88;;;;;;;;;;2068597;28;20038;-81
2024/01/27 06:18:57;;;;;;;1.58;1.15;;;;;;;;;;2057712;28;20106;-80
2024/01/27 06:20:18;;;;;;;2.10;0.90;;;;;;;;;;2056061;28;20031;-79
2024/01/27 06:21:38;;;;;;;0.80;0.80;;;;;;;;;;2056306;28;20030;-80
2024/01/27 06:23:00;;;;;;;0.98;0.93;;;;;;;;;;2056334;28;20027;-80
2024/01/27 06:24:19;;;;;;;0.90;0.90;;;;;;;;;;2065144;28;20058;-79
2024/01/27 06:25:38;;;;;;;1.30;0.80;;;;;;;;;;2058848;28;20038;-80
2024/01/27 06:26:56;;;;;;;1.65;0.80;;;;;;;;;;2062386;28;20416;-80
2024/01/27 06:28:15;;;;;;;2.60;0.90;;;;;;;;;;2066684;28;20053;-80
2024/01/27 06:29:34;;;;;;;1.05;0.75;;;;;;;;;;2059889;28;20031;-79
2024/01/27 06:30:53;;;;;;;0.95;0.95;;;;;;;;;;2064356;28;20102;-80
2024/01/27 06:32:13;;;;;;;2.17;0.90;;;;;;;;;;2058423;28;20031;-81
2024/01/27 06:33:32;;;;;;;1.48;0.90;;;;;;;;;;2064549;28;20026;-79
2024/01/27 06:34:51;;;;;;;2.63;1.20;;;;;;;;;;2059303;28;20039;-81
2024/01/27 06:36:10;;;;;;;1.45;0.80;;;;;;;;;;2058228;28;20022;-81
2024/01/27 06:37:30;;;;;;;1.40;0.90;;;;;;;;;;2054394;28;20027;-81
2024/01/27 06:38:49;;;;;;;2.13;0.90;;;;;;;;;;2064422;28;20030;-81
2024/01/27 06:40:11;;;;;;;1.17;1.00;;;;;;;;;;2068058;28;20038;-80
2024/01/27 06:41:30;;;;;;;1.55;0.85;;;;;;;;;;2067421;28;20404;-79
2024/01/27 06:42:49;;;;;;;1.35;0.90;;;;;;;;;;2058374;28;20031;-80
2024/01/27 06:44:08;;;;;;;1.63;0.70;;;;;;;;;;2064151;28;20725;-81
2024/01/27 06:45:27;;;;;;;0.82;0.82;;;;;;;;;;2067476;28;20030;-80
2024/01/27 06:46:49;;;;;;;1.10;0.90;;;;;;;;;;2067886;28;20034;-80
2024/01/27 06:48:08;;;;;;;2.10;1.15;;;;;;;;;;2067390;28;20042;-80
2024/01/27 06:49:27;;;;;;;1.88;0.90;;;;;;;;;;2073650;28;20505;-80
2024/01/27 06:50:46;;;;;;;2.30;1.00;;;;;;;;;;2068917;28;20029;-80
2024/01/27 06:52:05;;;;;;;1.30;0.90;;;;;;;;;;2066674;28;20588;-80
2024/01/27 06:53:26;;;;;;;1.80;0.95;;;;;;;;;;2073868;28;20029;-80
2024/01/27 06:54:46;;;;;;;1.05;0.65;;;;;;;;;;2075783;28;20085;-80
2024/01/27 06:56:05;;;;;;;1.58;0.95;;;;;;;;;;2068962;28;20543;-80
2024/01/27 06:57:24;;;;;;;0.88;0.80;;;;;;;;;;2065827;28;20512;-80
2024/01/27 06:58:43;;;;;;;1.05;0.93;;;;;;;;;;2068049;28;20022;-79
2024/01/27 07:00:03;;;;;;;1.02;0.73;;;;;;;;;;2063825;28;20109;-78
2024/01/27 07:01:21;;;;;;;1.02;1.00;;;;;;;;;;2071244;28;20524;-78
2024/01/27 07:02:42;;;;;;;3.67;0.82;;;;;;;;;;2068328;28;20459;-78
2024/01/27 07:04:01;;;;;;;2.05;1.00;;;;;;;;;;2074911;28;20034;-79
2024/01/27 07:05:21;;;;;;;2.95;1.05;;;;;;;;;;2068683;28;20022;-78
2024/01/27 07:06:40;;;;;;;2.30;0.90;;;;;;;;;;2068525;28;20034;-79
2024/01/27 07:08:00;;;;;;;1.45;1.10;;;;;;;;;;2074338;28;20428;-79
2024/01/27 07:09:19;;;;;;;1.20;1.10;;;;;;;;;;2068111;28;20034;-78
2024/01/27 07:10:39;;;;;;;3.50;1.30;;;;;;;;;;2074050;28;20025;-79
2024/01/27 07:11:58;;;;;;;1.27;1.00;;;;;;;;;;2071372;28;20014;-79
2024/01/27 07:13:17;;;;;;;1.92;1.02;;;;;;;;;;2067005;28;20022;-78
2024/01/27 07:14:36;;;;;;;3.03;1.08;;;;;;;;;;2066060;28;20042;-79
2024/01/27 07:15:57;;;;;;;0.82;0.82;;;;;;;;;;2065912;28;20042;-79
2024/01/27 07:17:17;;;;;;;1.13;1.10;;;;;;;;;;2064851;28;20497;-79
2024/01/27 07:18:36;;;;;;;2.60;1.30;;;;;;;;;;2062617;28;20065;-78
2024/01/27 07:19:56;;;;;;;4.90;1.05;;;;;;;;;;2065855;28;20128;-78
2024/01/27 07:21:19;;;;;;;7.65;1.50;;;;;;;;;;2066324;28;20029;-78
2024/01/27 07:22:38;;;;;;;3.45;1.27;;;;;;;;;;2064894;28;20034;-78
2024/01/27 07:23:59;;;;;;;2.88;1.30;;;;;;;;;;2056621;28;20584;-79
2024/01/27 07:25:17;;;;;;;3.28;1.23;;;;;;;;;;2064030;28;20042;-79
2024/01/27 07:26:36;;;;;;;2.60;1.20;;;;;;;;;;2065386;28;20023;-78
2024/01/27 07:27:55;;;;;;;2.00;1.20;;;;;;;;;;2074383;28;20495;-79
2024/01/27 07:29:14;;;;;;;3.30;1.52;;;;;;;;;;2076007;28;20030;-78
2024/01/27 07:30:35;;;;;;;5.53;1.50;;;;;;;;;;2076967;28;20064;-79
2024/01/27 07:31:54;;;;;;;3.05;1.33;;;;;;;;;;2067787;28;20995;-78
2024/01/27 07:33:13;;;;;;;2.70;1.50;;;;;;;;;;2073629;28;20057;-78
2024/01/27 07:34:33;;;;;;;4.00;1.15;;;;;;;;;;2067671;28;20078;-78
2024/01/27 07:35:52;;;;;;;1.50;1.20;;;;;;;;;;2072555;28;20504;-78
2024/01/27 07:37:12;;;;;;;1.50;1.40;;;;;;;;;;2068424;28;20465;-77
2024/01/27 07:38:32;;;;;;;1.05;1.05;;;;;;;;;;2073299;28;20030;-79
2024/01/27 07:39:51;;;;;;;2.35;1.13;;;;;;;;;;2076566;28;20034;-77
2024/01/27 07:41:10;;;;;;;3.85;1.35;;;;;;;;;;2076533;28;20396;-77
2024/01/27 07:42:29;;;;;;;5.10;1.30;;;;;;;;;;2076959;28;20499;-78
2024/01/27 07:43:48;;;;;;;4.60;1.50;;;;;;;;;;2077330;28;20033;-78
2024/01/27 07:45:08;;;;;;;5.25;1.30;;;;;;;;;;2068346;28;20505;-77
2024/01/27 07:46:27;;;;;;;3.00;1.08;;;;;;;;;;2074408;28;20400;-76
2024/01/27 07:47:46;;;;;;;4.43;1.52;;;;;;;;;;2076232;28;20109;-78
2024/01/27 07:49:06;;;;;;;3.67;1.40;;;;;;;;;;2069122;28;20041;-77
2024/01/27 07:50:25;;;;;;;1.48;1.38;;;;;;;;;;2074190;28;20033;-78
2024/01/27 07:51:44;;;;;;;2.42;1.30;;;;;;;;;;2076575;28;20034;-77
2024/01/27 07:53:03;;;;;;;3.42;1.38;;;;;;;;;;2076896;28;20400;-79
2024/01/27 07:54:22;;;;;;;5.93;2.10;;;;;;;;;;2068479;28;20034;-78